Terminal Aerodrome Forecast
Issued by NWS Sioux Falls, SD

Home | Current Version | Previous Version | Text Only | Print | Product List | Glossary Off
Versions: 1 2 3 4 5 6 7 8 9 10 11 12 13 14 15 16 17 18 19 20 21 22 23 24 25 26 27 28 29 30 31 32 33

000
FTUS43 KFSD 231129
TAFSUX
TAF
KSUX 231129Z 2312/2412 18009KT P6SM SHRA SCT015 OVC040
      TEMPO 2312/2314 6SM -TSRA BKN025CB OVC040
     FM231400 18012KT P6SM SCT025 BKN045
      TEMPO 2319/2321 4SM TSRA OVC025CB
     FM232100 22010KT P6SM OVC040 PROB30 2321/2324 6SM TSRA OVC025CB
     FM240100 17008KT P6SM SCT080
     FM240900 16004KT 4SM BR SCT120=

USA.gov is the U.S. government's official web portal to all federal, state and local government web resources and services.